Time;durP1;ratioP1;P1;durP2;ratioP2;P2;SDS_P1;SDS_P2;PMS_P1;PMS_P2;Temp;Humidity;BMP_temperature;BMP_pressure;BME280_temperature;BME280_humidity;BME280_pressure;Samples;Min_cycle;Max_cycle;Signal;HPM_P1;HPM_P2
2023/09/02 00:01:53;;;;;;;1.23;0.60;;;;;;;20.94;52.53;101491.25;5074047;28;20375;-87
2023/09/02 00:04:19;;;;;;;1.10;0.60;;;;;;;21.07;52.11;101501.09;5074148;28;20453;-88
2023/09/02 00:06:44;;;;;;;0.77;0.40;;;;;;;21.15;51.52;101491.91;5055900;28;20376;-87
2023/09/02 00:09:10;;;;;;;1.65;0.60;;;;;;;21.20;51.08;101497.47;5072778;28;20509;-87
2023/09/02 00:11:37;;;;;;;1.52;0.70;;;;;;;21.22;51.40;101499.94;5055476;28;20466;-86
2023/09/02 00:14:03;;;;;;;1.20;0.55;;;;;;;21.39;50.65;101501.00;5039135;28;20415;-86
2023/09/02 00:16:28;;;;;;;1.23;0.80;;;;;;;21.42;50.26;101499.75;5054968;28;20422;-86
2023/09/02 00:18:54;;;;;;;1.70;0.70;;;;;;;21.35;50.45;101489.00;5072909;28;20387;-86
2023/09/02 00:21:19;;;;;;;1.23;0.57;;;;;;;21.29;50.57;101485.34;5073340;28;20401;-87
2023/09/02 00:23:45;;;;;;;0.70;0.40;;;;;;;21.20;51.39;101495.56;5073185;28;20540;-87
2023/09/02 00:26:11;;;;;;;1.07;0.70;;;;;;;21.06;51.63;101491.34;5055173;28;20375;-84
2023/09/02 00:28:36;;;;;;;1.40;0.68;;;;;;;21.10;51.40;101489.03;5072365;28;20478;-83
2023/09/02 00:31:02;;;;;;;1.05;0.65;;;;;;;21.06;51.45;101485.13;5073420;28;20379;-84
2023/09/02 00:33:28;;;;;;;1.57;0.80;;;;;;;20.99;51.83;101488.72;5073583;28;20383;-88
2023/09/02 00:35:53;;;;;;;1.17;0.90;;;;;;;20.93;51.83;101488.78;5031082;28;20416;-88
2023/09/02 00:38:19;;;;;;;1.67;0.60;;;;;;;20.84;52.36;101495.50;5030970;28;20387;-88
2023/09/02 00:41:02;;;;;;;0.87;0.40;;;;;;;20.74;52.73;101504.91;5030899;28;20401;-89
2023/09/02 00:43:29;;;;;;;1.23;0.60;;;;;;;20.72;52.66;101506.94;4999522;28;20444;-87
2023/09/02 00:45:55;;;;;;;1.27;0.60;;;;;;;20.68;52.93;101504.94;5030122;28;20417;-85
2023/09/02 00:48:21;;;;;;;1.10;0.80;;;;;;;20.65;52.75;101500.78;5029971;28;20465;-85
2023/09/02 00:50:46;;;;;;;0.90;0.50;;;;;;;20.61;52.84;101505.78;5029906;28;20425;-85
2023/09/02 00:53:12;;;;;;;0.60;0.43;;;;;;;20.52;53.06;101507.06;5013466;28;20454;-85
2023/09/02 00:56:14;;;;;;;;;;;;;;;;;;;;;
2023/09/02 00:58:40;;;;;;;0.65;0.47;;;;;;;20.51;52.99;101509.97;4999590;28;20401;-85
2023/09/02 01:01:11;;;;;;;1.52;0.60;;;;;;;20.54;52.97;101510.34;5012172;28;20402;-85
2023/09/02 01:03:38;;;;;;;0.70;0.60;;;;;;;20.57;52.52;101509.94;5029675;28;20383;-86
2023/09/02 01:06:05;;;;;;;0.75;0.63;;;;;;;20.55;52.56;101509.31;5036990;28;20412;-86
2023/09/02 01:08:31;;;;;;;0.80;0.65;;;;;;;20.49;52.88;101518.28;5072014;28;20588;-86
2023/09/02 01:11:00;;;;;;;1.40;0.95;;;;;;;20.16;54.07;101524.66;5072175;28;20816;-86
2023/09/02 01:13:27;;;;;;;0.68;0.32;;;;;;;20.10;54.15;101522.81;5054527;28;20768;-85
2023/09/02 01:15:55;;;;;;;0.95;0.65;;;;;;;20.18;53.86;101521.75;5072787;28;20375;-87
2023/09/02 01:18:22;;;;;;;0.63;0.55;;;;;;;20.29;53.65;101528.31;5055189;28;20387;-90
2023/09/02 01:21:31;;;;;;;0.45;0.40;;;;;;;20.35;53.06;101522.91;5054371;28;20769;-90
2023/09/02 01:24:34;;;;;;;0.45;0.40;;;;;;;20.34;53.12;101517.72;5072411;28;20379;-88
2023/09/02 01:27:28;;;;;;;0.60;0.50;;;;;;;20.18;53.60;101521.75;5072595;28;20437;-88
2023/09/02 01:29:55;;;;;;;1.10;0.60;;;;;;;20.13;54.05;101525.09;5072476;28;20887;-87
2023/09/02 01:32:27;;;;;;;0.65;0.50;;;;;;;20.08;54.27;101519.53;5072043;28;20538;-87
2023/09/02 01:34:54;;;;;;;0.75;0.55;;;;;;;19.97;54.24;101529.09;5037800;28;20397;-87
2023/09/02 01:37:22;;;;;;;2.78;1.05;;;;;;;20.00;54.24;101534.03;5076935;28;20383;-88
2023/09/02 01:39:51;;;;;;;2.45;0.70;;;;;;;20.08;53.97;101524.91;5068255;28;20391;-89
2023/09/02 01:42:18;;;;;;;1.98;0.60;;;;;;;20.07;53.73;101525.94;5072413;28;20386;-88
2023/09/02 01:44:44;;;;;;;1.95;1.23;;;;;;;20.12;53.42;101528.81;5071956;28;20931;-89
2023/09/02 01:47:12;;;;;;;2.17;0.80;;;;;;;20.23;53.04;101532.69;5071397;28;20375;-87
2023/09/02 01:49:38;;;;;;;1.10;0.70;;;;;;;20.21;53.19;101526.72;5054016;28;20403;-88
2023/09/02 01:52:05;;;;;;;1.88;0.73;;;;;;;20.25;53.06;101536.00;5054267;28;20434;-89
2023/09/02 01:54:31;;;;;;;1.40;0.50;;;;;;;20.22;52.85;101525.66;5054405;28;20413;-88
2023/09/02 01:56:57;;;;;;;1.73;0.63;;;;;;;20.20;52.88;101527.72;5070505;28;20387;-88
2023/09/02 01:59:23;;;;;;;1.40;0.60;;;;;;;20.15;53.16;101532.94;5036949;28;20391;-86
2023/09/02 02:01:48;;;;;;;1.58;0.60;;;;;;;20.13;53.22;101532.31;5071437;28;20391;-86
2023/09/02 02:04:33;;;;;;;1.90;0.77;;;;;;;20.05;53.36;101528.00;5053561;28;20375;-87
2023/09/02 02:07:03;;;;;;;1.45;0.55;;;;;;;20.04;53.41;101521.81;5071169;28;20381;-87
2023/09/02 02:09:56;;;;;;;1.38;0.82;;;;;;;20.09;53.55;101525.72;5037218;28;20515;-86
2023/09/02 02:12:22;;;;;;;2.10;0.68;;;;;;;20.11;53.23;101537.91;5067264;28;20430;-86
2023/09/02 02:14:48;;;;;;;1.35;0.47;;;;;;;20.16;52.92;101535.41;5071222;28;20845;-86
2023/09/02 02:17:14;;;;;;;1.35;0.50;;;;;;;20.20;52.70;101533.97;5071104;28;20363;-86
2023/09/02 02:19:40;;;;;;;1.90;0.82;;;;;;;20.13;53.00;101527.78;5053156;28;20387;-87
2023/09/02 02:22:06;;;;;;;1.00;0.40;;;;;;;20.11;53.27;101537.91;5052843;28;20700;-88
2023/09/02 02:24:32;;;;;;;1.02;0.50;;;;;;;20.08;53.21;101538.38;5053780;28;20387;-89
2023/09/02 02:26:58;;;;;;;2.00;0.82;;;;;;;20.07;53.18;101530.50;5071354;28;20923;-86
2023/09/02 02:29:23;;;;;;;2.10;0.80;;;;;;;19.99;53.51;101528.88;5070864;28;20407;-86
2023/09/02 02:31:49;;;;;;;1.88;0.85;;;;;;;19.79;54.03;101543.22;5051861;28;20419;-86
2023/09/02 02:34:15;;;;;;;1.92;0.80;;;;;;;19.76;54.07;101540.94;5070338;28;20415;-89
2023/09/02 02:36:41;;;;;;;2.17;0.90;;;;;;;19.71;54.30;101542.56;5050402;28;20441;-88
2023/09/02 02:39:11;;;;;;;2.20;0.80;;;;;;;19.71;54.16;101537.19;5051628;28;20390;-87
2023/09/02 02:41:36;;;;;;;2.78;1.00;;;;;;;19.59;54.31;101537.00;5068810;28;20470;-88
2023/09/02 02:44:02;;;;;;;1.57;0.60;;;;;;;19.50;54.63;101536.41;5069044;28;20836;-89
2023/09/02 02:46:28;;;;;;;1.20;0.50;;;;;;;19.56;54.60;101532.06;5053258;28;20830;-89
2023/09/02 02:48:53;;;;;;;2.05;0.63;;;;;;;19.57;54.26;101529.16;5052967;28;20929;-88
2023/09/02 02:51:19;;;;;;;2.50;0.63;;;;;;;19.56;54.23;101532.06;5053063;28;20406;-88
2023/09/02 02:53:45;;;;;;;0.95;0.40;;;;;;;19.52;54.33;101525.44;5053303;28;20816;-89
2023/09/02 02:56:11;;;;;;;2.95;1.00;;;;;;;19.51;54.69;101530.00;5053211;28;20383;-89
2023/09/02 02:58:37;;;;;;;2.90;0.70;;;;;;;19.46;54.58;101519.88;5070831;28;20418;-89
2023/09/02 03:01:04;;;;;;;2.63;0.70;;;;;;;19.55;54.31;101533.09;5070736;28;20406;-89
2023/09/02 03:03:30;;;;;;;2.75;1.30;;;;;;;19.63;54.05;101535.56;5071346;28;20393;-88
2023/09/02 03:05:57;;;;;;;2.22;0.60;;;;;;;19.68;53.89;101535.75;5070792;28;20381;-88
2023/09/02 03:08:22;;;;;;;2.50;0.75;;;;;;;19.65;53.77;101534.31;5070660;28;20454;-89
2023/09/02 03:10:56;;;;;;;1.97;0.60;;;;;;;19.72;53.59;101541.56;5053060;28;20731;-88
2023/09/02 03:13:21;;;;;;;1.97;0.60;;;;;;;19.67;53.50;101551.06;5052782;28;20452;-86
2023/09/02 03:15:51;;;;;;;1.50;0.60;;;;;;;19.73;53.30;101552.09;5070614;28;20378;-85
2023/09/02 03:18:17;;;;;;;1.93;0.70;;;;;;;19.62;53.79;101547.34;5070366;28;20916;-85
2023/09/02 03:20:46;;;;;;;1.40;0.50;;;;;;;19.50;54.25;101541.78;5035919;28;20383;-85
2023/09/02 03:23:12;;;;;;;1.83;0.65;;;;;;;19.39;54.71;101539.72;5052889;28;20456;-85
2023/09/02 03:25:38;;;;;;;1.23;0.50;;;;;;;19.32;54.90;101552.34;5074242;28;20436;-85
2023/09/02 03:28:04;;;;;;;3.30;1.13;;;;;;;19.26;55.21;101543.25;5056149;28;20493;-85
2023/09/02 03:30:30;;;;;;;2.80;0.80;;;;;;;19.32;54.89;101555.03;5074435;28;20375;-84
2023/09/02 03:32:55;;;;;;;1.40;0.50;;;;;;;19.24;55.08;101546.13;5074321;28;20395;-85
2023/09/02 03:35:21;;;;;;;2.80;1.00;;;;;;;19.26;54.92;101554.00;5074405;28;20382;-85
2023/09/02 03:37:47;;;;;;;2.75;0.88;;;;;;;19.11;55.49;101562.28;5073973;28;20378;-84
2023/09/02 03:40:12;;;;;;;2.10;0.63;;;;;;;19.18;55.20;101554.22;5072283;28;20885;-84
2023/09/02 03:42:41;;;;;;;2.55;0.82;;;;;;;19.23;54.97;101560.63;5077884;28;20473;-85
2023/09/02 03:45:09;;;;;;;1.52;0.60;;;;;;;19.16;55.16;101558.94;5040125;28;21006;-85
2023/09/02 03:47:35;;;;;;;2.15;0.63;;;;;;;19.19;55.32;101554.00;5074115;28;20514;-85
2023/09/02 03:50:01;;;;;;;2.75;0.80;;;;;;;19.21;55.04;101559.16;5073609;28;20382;-85
2023/09/02 03:52:27;;;;;;;2.65;0.82;;;;;;;19.21;54.83;101554.63;5073731;28;20371;-87
2023/09/02 03:54:56;;;;;;;1.80;0.70;;;;;;;19.23;54.81;101557.94;5074383;28;20383;-87
2023/09/02 03:57:22;;;;;;;1.80;0.50;;;;;;;19.19;55.01;101561.25;5056225;28;20414;-85
2023/09/02 03:59:47;;;;;;;1.40;0.50;;;;;;;19.19;55.30;101563.91;5073541;28;20418;-90
2023/09/02 04:02:13;;;;;;;1.23;0.50;;;;;;;19.20;55.05;101554.84;5056671;28;20448;-91
2023/09/02 04:04:41;;;;;;;3.20;1.38;;;;;;;19.19;55.29;101563.91;5074330;28;20452;-91
2023/09/02 04:07:07;;;;;;;1.77;0.60;;;;;;;19.18;55.27;101563.09;5056343;28;20391;-90
2023/09/02 04:09:34;;;;;;;2.13;0.80;;;;;;;19.18;55.07;101567.66;5057685;28;20429;-89
2023/09/02 04:12:00;;;;;;;1.95;0.63;;;;;;;19.04;55.49;101559.56;5074949;28;20452;-89
2023/09/02 04:14:25;;;;;;;1.88;0.73;;;;;;;19.01;55.79;101572.59;5057358;28;20383;-90
2023/09/02 04:16:55;;;;;;;1.60;0.77;;;;;;;19.10;55.69;101590.16;5057500;28;20496;-90
2023/09/02 04:19:22;;;;;;;2.63;0.80;;;;;;;19.01;55.71;101583.34;5057854;28;20425;-90
2023/09/02 04:21:49;;;;;;;2.15;0.95;;;;;;;18.98;55.70;101589.97;5075074;28;20401;-89
2023/09/02 04:24:14;;;;;;;1.57;0.73;;;;;;;18.99;55.66;101585.41;5056742;28;20395;-89
2023/09/02 04:26:42;;;;;;;1.88;0.60;;;;;;;19.06;55.55;101586.25;5056448;28;20403;-89
2023/09/02 04:29:08;;;;;;;2.05;0.70;;;;;;;19.17;55.20;101587.50;5056868;28;20430;-89
2023/09/02 04:31:33;;;;;;;2.53;0.93;;;;;;;19.20;55.23;101579.03;5074427;28;20792;-91
2023/09/02 04:33:59;;;;;;;1.70;0.60;;;;;;;19.16;55.46;101586.69;5056195;28;20431;-90
2023/09/02 04:36:24;;;;;;;1.70;0.70;;;;;;;19.14;55.47;101593.28;5074207;28;20398;-89
2023/09/02 04:38:53;;;;;;;2.60;0.80;;;;;;;19.16;55.50;101589.38;5056321;28;20383;-89
2023/09/02 04:41:18;;;;;;;3.17;0.95;;;;;;;19.23;55.43;101597.41;5056557;28;20391;-90
2023/09/02 04:43:44;;;;;;;2.57;0.80;;;;;;;19.25;55.09;101598.88;5058776;28;20876;-91
2023/09/02 04:46:09;;;;;;;2.38;0.93;;;;;;;19.20;55.38;101590.59;5056144;28;20405;-90
2023/09/02 04:48:37;;;;;;;2.37;0.73;;;;;;;19.18;55.45;101595.34;5056911;28;20402;-90
2023/09/02 04:51:04;;;;;;;1.63;0.50;;;;;;;19.30;55.37;101606.31;5077901;28;20394;-89
2023/09/02 04:53:29;;;;;;;2.90;0.90;;;;;;;19.34;55.25;101604.03;5063435;28;20482;-90
2023/09/02 04:55:55;;;;;;;2.15;0.57;;;;;;;19.47;55.00;101610.25;5074940;28;20379;-91
2023/09/02 04:58:22;;;;;;;1.50;0.50;;;;;;;19.51;54.74;101605.28;5073000;28;20454;-89
2023/09/02 05:00:49;;;;;;;2.17;0.70;;;;;;;19.42;55.04;101606.53;5073487;28;20385;-90
2023/09/02 05:03:15;;;;;;;2.73;0.90;;;;;;;19.62;54.35;101588.50;5057240;28;20485;-90
2023/09/02 05:05:41;;;;;;;2.53;0.80;;;;;;;19.95;53.94;101603.81;5074911;28;20387;-89
2023/09/02 05:08:07;;;;;;;2.25;0.75;;;;;;;19.98;53.57;101589.94;5056170;28;20453;-91
2023/09/02 05:10:34;;;;;;;2.30;0.70;;;;;;;20.06;53.55;101602.34;5074748;28;20383;-90
2023/09/02 05:13:01;;;;;;;3.97;0.88;;;;;;;20.08;53.52;101602.97;5074004;28;20800;-90
2023/09/02 05:15:26;;;;;;;2.13;0.80;;;;;;;20.23;53.20;101614.28;5056431;28;20401;-90
2023/09/02 05:17:52;;;;;;;2.53;0.80;;;;;;;20.34;53.03;101601.22;5031589;28;20390;-90
2023/09/02 05:20:18;;;;;;;2.30;0.80;;;;;;;20.39;52.70;101601.41;5032692;28;20398;-90
2023/09/02 05:22:44;;;;;;;1.75;0.63;;;;;;;20.49;52.67;101600.94;5017630;28;20378;-90
2023/09/02 05:25:10;;;;;;;2.07;0.70;;;;;;;20.65;52.61;101610.41;5016224;28;20394;-89
2023/09/02 05:27:38;;;;;;;1.90;0.50;;;;;;;20.74;52.14;101606.44;5016099;28;20414;-89
2023/09/02 05:30:05;;;;;;;2.05;0.73;;;;;;;20.78;52.16;101602.28;5015258;28;20382;-90
2023/09/02 05:32:31;;;;;;;1.85;0.55;;;;;;;20.87;51.76;101600.97;4999067;28;20421;-90
2023/09/02 05:34:56;;;;;;;1.65;0.70;;;;;;;20.90;51.71;101610.50;5015115;28;20463;-90
2023/09/02 05:37:22;;;;;;;3.07;1.23;;;;;;;20.83;51.66;101617.78;5015587;28;20417;-90
2023/09/02 05:39:48;;;;;;;1.70;0.70;;;;;;;20.59;52.15;101618.28;5015214;28;20399;-87
2023/09/02 05:42:13;;;;;;;2.27;0.97;;;;;;;20.69;52.06;101617.03;5028753;28;20899;-88
2023/09/02 05:44:41;;;;;;;3.05;0.93;;;;;;;20.70;52.02;101614.13;5034760;28;20394;-88
2023/09/02 05:47:06;;;;;;;2.20;0.75;;;;;;;20.60;52.48;101616.44;5022743;28;20402;-88
2023/09/02 05:49:37;;;;;;;2.33;0.97;;;;;;;20.68;52.59;101626.16;5064845;28;20406;-89
2023/09/02 05:52:04;;;;;;;2.20;0.80;;;;;;;20.78;52.42;101621.97;5072726;28;20381;-88
2023/09/02 05:54:33;;;;;;;1.98;0.80;;;;;;;21.03;51.97;101623.06;5056044;28;20444;-84
2023/09/02 05:56:59;;;;;;;2.00;0.60;;;;;;;21.20;51.66;101616.91;5071589;28;20390;-89
2023/09/02 05:59:29;;;;;;;2.07;0.70;;;;;;;21.21;51.40;101615.03;5053976;28;20754;-85
2023/09/02 06:01:56;;;;;;;1.73;0.70;;;;;;;21.37;51.25;101614.53;5071808;28;20390;-85
2023/09/02 06:04:22;;;;;;;2.55;0.65;;;;;;;21.55;50.83;101616.47;5053272;28;20959;-87
2023/09/02 06:06:48;;;;;;;4.07;1.30;;;;;;;21.76;50.69;101617.91;5070431;28;20383;-86
2023/09/02 06:09:13;;;;;;;3.83;1.10;;;;;;;21.76;50.70;101614.41;5069201;28;20419;-86
2023/09/02 06:11:39;;;;;;;2.40;0.90;;;;;;;21.93;50.48;101622.75;5070915;28;20382;-86
2023/09/02 06:14:04;;;;;;;1.65;0.60;;;;;;;22.01;50.57;101630.56;5071169;28;20390;-86
2023/09/02 06:16:31;;;;;;;1.67;0.57;;;;;;;22.11;50.28;101627.31;5072491;28;20395;-85
2023/09/02 06:18:57;;;;;;;1.75;0.80;;;;;;;22.21;50.35;101627.63;5053185;28;20413;-86
2023/09/02 06:21:23;;;;;;;1.00;0.60;;;;;;;22.30;49.84;101628.19;5054232;28;20474;-86
2023/09/02 06:23:49;;;;;;;1.45;0.50;;;;;;;22.50;49.60;101628.75;5054171;28;20394;-87
2023/09/02 06:26:15;;;;;;;0.88;0.40;;;;;;;22.61;49.49;101635.28;5054251;28;20406;-87
2023/09/02 06:28:41;;;;;;;1.63;0.60;;;;;;;22.62;49.30;101628.00;5072154;28;20410;-87
2023/09/02 06:31:10;;;;;;;1.20;0.60;;;;;;;22.76;49.19;101632.19;5071484;28;20747;-87
2023/09/02 06:33:36;;;;;;;1.95;0.70;;;;;;;22.74;49.02;101630.75;5054020;28;20413;-87
2023/09/02 06:36:16;;;;;;;2.30;0.80;;;;;;;22.88;48.87;101633.03;5054756;28;20489;-87
2023/09/02 06:38:42;;;;;;;2.08;0.63;;;;;;;23.01;48.72;101632.03;5073343;28;20379;-87
2023/09/02 06:41:23;;;;;;;1.35;0.52;;;;;;;23.04;48.55;101638.84;5053662;28;20494;-86
2023/09/02 06:43:49;;;;;;;2.33;0.70;;;;;;;23.21;48.41;101634.47;5038137;28;20410;-86
2023/09/02 06:46:17;;;;;;;1.38;0.68;;;;;;;23.27;48.47;101625.41;5054221;28;20398;-86
2023/09/02 06:48:46;;;;;;;1.63;0.63;;;;;;;23.41;47.94;101627.94;5053073;28;20403;-87
2023/09/02 06:51:13;;;;;;;1.20;0.40;;;;;;;23.61;47.88;101625.69;5053844;28;20453;-87
2023/09/02 06:53:40;;;;;;;1.25;0.52;;;;;;;23.77;47.66;101634.16;4994560;28;20475;-87
2023/09/02 06:56:09;;;;;;;1.37;0.57;;;;;;;23.77;47.64;101636.84;4993031;28;20388;-87
2023/09/02 06:58:38;;;;;;;0.75;0.40;;;;;;;23.79;47.48;101630.16;4991631;28;20388;-87
2023/09/02 07:01:04;;;;;;;1.35;0.45;;;;;;;23.87;47.42;101637.13;4992117;28;20379;-87
2023/09/02 07:03:29;;;;;;;1.55;0.57;;;;;;;23.91;47.21;101629.34;4992784;28;20948;-87
2023/09/02 07:06:06;;;;;;;1.20;0.53;;;;;;;24.00;47.05;101625.22;4969725;28;20404;-88
2023/09/02 07:08:32;;;;;;;1.00;0.63;;;;;;;24.01;46.54;101637.72;4970281;28;20799;-88
2023/09/02 07:10:58;;;;;;;0.77;0.40;;;;;;;24.02;46.34;101636.63;4953141;28;20902;-87
2023/09/02 07:13:24;;;;;;;0.77;0.40;;;;;;;23.89;46.31;101634.19;4969992;28;20870;-87
2023/09/02 07:15:58;;;;;;;1.60;0.80;;;;;;;23.95;46.45;101634.06;4970050;28;20462;-85
2023/09/02 07:18:23;;;;;;;1.20;0.70;;;;;;;24.13;45.93;101635.81;4953839;28;20411;-87
2023/09/02 07:20:49;;;;;;;1.00;0.47;;;;;;;24.17;45.79;101636.16;4970616;28;20827;-86
2023/09/02 07:23:15;;;;;;;1.05;0.50;;;;;;;24.29;45.53;101633.41;4970440;28;20406;-87
2023/09/02 07:25:41;;;;;;;1.30;0.50;;;;;;;24.33;45.42;101638.13;4955557;28;20388;-86
2023/09/02 07:28:06;;;;;;;0.90;0.40;;;;;;;24.45;45.18;101639.97;4971782;28;20419;-86
2023/09/02 07:30:32;;;;;;;1.25;0.50;;;;;;;24.59;44.91;101641.38;4988010;28;20385;-83
2023/09/02 07:32:58;;;;;;;0.95;0.47;;;;;;;24.72;44.83;101640.25;5012886;28;20947;-79
2023/09/02 07:35:26;;;;;;;0.98;0.35;;;;;;;24.89;44.94;101637.59;5030925;28;20394;-88
2023/09/02 07:37:52;;;;;;;1.40;0.57;;;;;;;25.05;44.67;101644.94;5028902;28;20432;-87
2023/09/02 07:40:17;;;;;;;2.13;0.60;;;;;;;25.12;44.62;101639.34;5032107;28;20402;-87
2023/09/02 07:42:43;;;;;;;0.88;0.30;;;;;;;25.27;44.20;101644.25;5034930;28;20654;-89
2023/09/02 07:45:09;;;;;;;1.57;0.50;;;;;;;25.41;44.06;101642.88;5035922;28;20390;-88
2023/09/02 07:47:34;;;;;;;1.80;0.60;;;;;;;25.56;43.13;101647.72;5030749;28;20840;-88
2023/09/02 07:50:00;;;;;;;1.67;0.60;;;;;;;25.37;42.72;101639.81;5033696;28;20417;-89
2023/09/02 07:52:26;;;;;;;0.83;0.30;;;;;;;25.49;43.18;101644.34;5038072;28;20480;-88
2023/09/02 07:54:52;;;;;;;0.45;0.30;;;;;;;25.66;43.00;101633.47;5041335;28;20469;-89
2023/09/02 07:57:18;;;;;;;1.00;0.40;;;;;;;25.77;42.85;101632.56;5038998;28;20382;-89
2023/09/02 07:59:43;;;;;;;1.73;0.40;;;;;;;25.82;42.44;101632.63;5038518;28;20398;-90
2023/09/02 08:02:09;;;;;;;0.63;0.30;;;;;;;25.89;42.27;101624.28;5031758;28;20405;-80
2023/09/02 08:04:34;;;;;;;0.33;0.20;;;;;;;26.04;42.43;101623.72;5032933;28;20464;-87
2023/09/02 08:07:01;;;;;;;1.40;0.55;;;;;;;26.17;42.42;101619.81;5031673;28;20405;-85
2023/09/02 08:09:35;;;;;;;1.30;0.47;;;;;;;26.29;41.81;101626.75;5073055;28;20411;-90
2023/09/02 08:12:09;;;;;;;2.53;0.50;;;;;;;26.40;41.84;101624.13;5063035;28;20387;-87
2023/09/02 08:18:02;;;;;;;1.10;0.60;;;;;;;26.57;40.22;101624.06;4984446;28;20417;-83
2023/09/02 08:20:30;;;;;;;2.10;0.50;;;;;;;26.55;39.56;101634.38;5063890;28;20903;-83
2023/09/02 08:23:14;;;;;;;0.87;0.30;;;;;;;26.47;40.07;101630.19;5073241;28;20390;-85
2023/09/02 08:26:05;;;;;;;0.90;0.40;;;;;;;26.46;39.69;101620.41;5067531;28;20452;-84
2023/09/02 08:28:41;;;;;;;2.30;0.77;;;;;;;26.71;40.44;101625.34;5065669;28;20449;-84
2023/09/02 08:31:11;;;;;;;3.53;1.08;;;;;;;26.77;39.71;101626.22;5048896;28;20399;-82
2023/09/02 08:33:36;;;;;;;1.83;0.70;;;;;;;26.77;39.17;101628.94;5059311;28;20392;-83
2023/09/02 08:36:05;;;;;;;2.53;0.80;;;;;;;26.84;39.85;101615.94;5069627;28;20991;-82
2023/09/02 08:38:34;;;;;;;2.17;0.82;;;;;;;27.04;39.56;101616.13;5067761;28;20420;-82
2023/09/02 08:41:05;;;;;;;2.90;0.90;;;;;;;27.10;38.87;101619.72;5062184;28;20392;-83
2023/09/02 08:43:31;;;;;;;2.60;1.00;;;;;;;27.07;38.52;101617.53;5047743;28;20469;-84
2023/09/02 08:46:00;;;;;;;0.98;0.68;;;;;;;27.29;38.62;101625.63;5052375;28;20423;-82
2023/09/02 08:48:25;;;;;;;1.23;0.52;;;;;;;27.45;37.90;101621.94;5046946;28;20942;-83
2023/09/02 08:50:54;;;;;;;0.63;0.35;;;;;;;27.54;38.35;101627.72;5039084;28;20482;-82
2023/09/02 08:53:23;;;;;;;0.85;0.45;;;;;;;27.71;38.31;101611.19;5053474;28;20398;-82
2023/09/02 08:55:53;;;;;;;0.63;0.40;;;;;;;27.78;38.53;101619.13;5058680;28;20383;-83
2023/09/02 08:58:19;;;;;;;0.77;0.43;;;;;;;27.82;38.12;101620.25;5053016;28;20398;-82
2023/09/02 09:00:46;;;;;;;0.63;0.30;;;;;;;27.89;37.90;101607.19;5053564;28;20387;-82
2023/09/02 09:03:29;;;;;;;0.98;0.40;;;;;;;27.72;36.91;101612.84;5053385;28;20405;-85
2023/09/02 09:05:58;;;;;;;0.73;0.40;;;;;;;27.88;37.32;101612.94;5071771;28;20371;-83
2023/09/02 09:08:24;;;;;;;0.82;0.50;;;;;;;28.06;37.09;101617.97;5052094;28;20441;-84
2023/09/02 09:10:51;;;;;;;1.98;0.90;;;;;;;27.97;36.80;101623.09;5064972;28;20782;-84
2023/09/02 09:13:18;;;;;;;1.55;0.60;;;;;;;28.11;36.79;101614.41;5044523;28;20414;-86
2023/09/02 09:15:47;;;;;;;2.13;0.90;;;;;;;27.99;35.38;101606.47;5045600;28;20485;-84
2023/09/02 09:18:12;;;;;;;2.23;0.90;;;;;;;28.01;35.44;101612.47;5044009;28;20407;-84
2023/09/02 09:20:44;;;;;;;1.75;0.73;;;;;;;28.16;35.96;101609.00;5061240;28;20409;-85
2023/09/02 09:23:10;;;;;;;2.60;1.10;;;;;;;28.51;35.76;101611.03;5046453;28;20402;-81
2023/09/02 09:25:36;;;;;;;1.67;0.67;;;;;;;28.58;35.25;101605.34;5062799;28;20411;-85
2023/09/02 09:28:11;;;;;;;1.00;0.50;;;;;;;28.70;35.70;101599.63;5031918;28;20429;-83
2023/09/02 09:30:37;;;;;;;1.20;0.52;;;;;;;28.65;34.93;101596.88;5045739;28;20495;-85
2023/09/02 09:33:05;;;;;;;0.80;0.40;;;;;;;28.73;34.85;101599.09;5069596;28;21023;-85
2023/09/02 09:35:32;;;;;;;2.17;0.77;;;;;;;28.81;35.03;101584.94;5051801;28;20379;-85
2023/09/02 09:38:01;;;;;;;2.33;0.80;;;;;;;28.92;34.88;101586.56;5068999;28;20953;-82
2023/09/02 09:40:38;;;;;;;2.53;0.93;;;;;;;29.01;35.06;101581.38;5035127;28;20379;-82
2023/09/02 09:43:16;;;;;;;1.55;0.63;;;;;;;29.00;35.26;101584.38;5069329;28;20382;-83
2023/09/02 09:45:50;;;;;;;1.05;0.50;;;;;;;29.16;35.08;101592.31;5070999;28;20391;-84
2023/09/02 09:48:15;;;;;;;1.10;0.60;;;;;;;29.32;35.03;101584.13;5071108;28;20441;-83
2023/09/02 09:50:42;;;;;;;1.10;0.50;;;;;;;29.40;35.08;101585.47;5071387;28;20398;-81
2023/09/02 09:53:14;;;;;;;1.23;0.60;;;;;;;29.42;35.42;101581.34;5071865;28;20391;-82
2023/09/02 09:55:40;;;;;;;1.50;0.50;;;;;;;29.55;34.92;101575.31;5054169;28;21543;-83
2023/09/02 09:58:05;;;;;;;1.20;0.43;;;;;;;29.65;35.05;101584.59;5071027;28;20390;-83
2023/09/02 10:00:31;;;;;;;1.33;0.50;;;;;;;29.69;34.92;101580.19;5054075;28;20386;-83
2023/09/02 10:02:58;;;;;;;1.50;0.60;;;;;;;29.72;34.47;101574.19;5071462;28;20492;-82
2023/09/02 10:05:25;;;;;;;0.85;0.40;;;;;;;29.73;34.16;101571.19;5037450;28;20398;-83
2023/09/02 10:08:04;;;;;;;1.33;0.50;;;;;;;29.71;34.54;101573.38;5046699;28;20425;-84
2023/09/02 10:10:38;;;;;;;1.95;0.68;;;;;;;29.80;34.34;101565.44;5031390;28;20387;-82
2023/09/02 10:13:04;;;;;;;1.57;0.60;;;;;;;29.84;33.82;101560.25;5030510;28;20391;-82
2023/09/02 10:15:30;;;;;;;1.95;0.68;;;;;;;29.93;34.08;101564.03;5030892;28;20885;-83
2023/09/02 10:18:01;;;;;;;1.25;0.60;;;;;;;29.99;34.10;101568.38;5031317;28;20386;-82
2023/09/02 10:20:31;;;;;;;1.45;0.50;;;;;;;29.95;34.49;101563.75;5029266;28;20849;-82
2023/09/02 10:23:03;;;;;;;1.30;0.50;;;;;;;30.04;34.72;101554.66;5029726;28;20488;-83
2023/09/02 10:25:34;;;;;;;1.35;0.55;;;;;;;30.07;34.33;101550.53;5029215;28;20382;-84
2023/09/02 10:28:03;;;;;;;2.23;0.80;;;;;;;30.03;33.79;101549.47;5029365;28;20421;-82
2023/09/02 10:30:43;;;;;;;1.05;0.43;;;;;;;30.06;34.34;101551.66;5030953;28;20379;-82
2023/09/02 10:33:31;;;;;;;1.35;0.50;;;;;;;30.18;33.86;101548.56;5038124;22;20525;-83
2023/09/02 10:36:03;;;;;;;1.17;0.60;;;;;;;30.26;33.80;101546.06;5012938;28;20525;-83
2023/09/02 10:38:33;;;;;;;2.08;0.88;;;;;;;30.22;33.72;101544.19;5013281;28;20837;-83
2023/09/02 10:41:12;;;;;;;1.83;0.50;;;;;;;30.35;33.14;101543.59;5012337;28;20394;-82
2023/09/02 10:43:40;;;;;;;3.23;0.70;;;;;;;30.39;33.18;101535.63;5029295;28;20767;-83
2023/09/02 10:46:07;;;;;;;2.40;0.77;;;;;;;30.38;32.66;101533.97;5029342;28;20991;-82
2023/09/02 10:48:35;;;;;;;1.35;0.50;;;;;;;30.42;32.60;101543.28;5029098;28;20414;-82
2023/09/02 10:51:02;;;;;;;0.95;0.50;;;;;;;30.41;32.62;101539.69;5030468;28;20386;-83
2023/09/02 10:53:51;;;;;;;1.63;0.80;;;;;;;30.37;32.88;101535.91;5030395;28;20406;-83
2023/09/02 10:56:34;;;;;;;1.35;0.55;;;;;;;30.44;33.92;101547.34;5021804;28;20824;-82
2023/09/02 10:59:01;;;;;;;1.42;0.68;;;;;;;30.42;32.92;101546.03;5029297;28;20762;-83
2023/09/02 11:01:43;;;;;;;1.88;0.82;;;;;;;30.40;32.73;101546.28;5029916;28;20389;-83
2023/09/02 11:04:09;;;;;;;1.30;0.70;;;;;;;30.48;32.75;101547.59;5029324;28;20396;-83
2023/09/02 11:07:16;;;;;;;1.90;0.80;;;;;;;30.49;32.99;101546.50;5030700;28;20473;-82
2023/09/02 11:10:04;;;;;;;1.95;0.70;;;;;;;30.58;32.62;101535.78;5028821;28;20468;-83
2023/09/02 11:12:35;;;;;;;1.63;1.02;;;;;;;30.66;32.47;101540.63;5030902;28;20393;-83
2023/09/02 11:15:06;;;;;;;1.45;0.52;;;;;;;30.79;32.03;101545.47;5029408;28;20394;-83
2023/09/02 11:17:33;;;;;;;1.77;0.70;;;;;;;30.88;31.73;101545.66;5030717;28;20382;-82
2023/09/02 11:20:08;;;;;;;1.50;0.40;;;;;;;30.81;31.75;101537.78;5029427;28;20885;-82
2023/09/02 11:22:59;;;;;;;1.50;0.70;;;;;;;30.77;31.97;101535.88;5011526;28;20481;-82
2023/09/02 11:25:44;;;;;;;1.50;0.50;;;;;;;30.81;31.47;101526.00;5029586;28;20394;-82
2023/09/02 11:28:18;;;;;;;1.23;0.57;;;;;;;30.83;30.90;101524.63;5028844;28;20781;-84
2023/09/02 11:31:09;;;;;;;0.95;0.47;;;;;;;30.85;31.68;101529.81;5028716;28;20452;-84
2023/09/02 11:33:37;;;;;;;1.30;0.60;;;;;;;30.87;31.29;101520.19;5011899;28;20476;-84
2023/09/02 11:36:19;;;;;;;1.50;0.52;;;;;;;30.95;31.02;101518.78;5028462;28;20409;-83
2023/09/02 11:38:45;;;;;;;0.73;0.40;;;;;;;30.92;30.84;101518.53;5028452;28;20397;-82